Terminal Aerodrome Forecast
Issued by NWS

Home | Current Version | Previous Version | Text Only | Print | Product List | Glossary On
Versions: 1 2 3 4 5 6 7 8 9 10 11 12 13 14 15 16 17 18 19 20 21 22
337
FTUS46 KSEW 291124 CCA
TAFHQM
TAF COR
KHQM 291124Z 2912/3012 00000KT 5SM BR SCT005
      TEMPO 2912/2914 1SM BR BKN002
     FM291400 00000KT 1SM BR OVC002
     FM291600 21005KT 3SM BR OVC006
     FM291700 25005KT 5SM BR BKN010
     FM291900 24015G22KT 5SM HZ SCT015
     FM300000 24012KT 5SM BR OVC015=

USA.gov is the U.S. government's official web portal to all federal, state and local government web resources and services.